Station: Grafton Agrs  

  Atmospheric Gas Attenuation - ITU Rec 676-11   ----------------- dB/100km -----------------
Date Time Temp RH % AH g/m3 Dew Point Wind Direction Speed kph Gust kph Barometer mB Rainfall Since 9am 24GHz 47GHz 76GHz 122GHz 134GHz 241GHz
08/05 12:30 20.3 20 3.52 -3.4 9 17 1013.1 0 8.7 17.2 19.8 51.0 34.7 115.6
08/05 12:20 20 22 3.8 -2.3 11 13 1013.1 0 9.2 17.6 20.7 53.5 37.6 125.9
08/05 12:10 19.6 23 3.88 -2.1 6 9 1013.1 0 9.4 17.8 21.0 54.4 38.6 129.3
08/05 12:00 19.6 23 3.88 -2.1 9 13 1013.1 0 9.4 17.8 21.0 54.4 38.6 129.3
08/05 11:50 19.3 24 3.98 -1.7 11 15 1013.1 0 9.6 18.0 21.4 55.4 39.8 133.4
08/05 11:40 19 30 4.89 1.1 9 11 1013.1 0 11.5 19.2 24.4 63.3 49.5 167.4
08/05 11:30 18.6 28 4.46 -0.2 9 15 1013.1 0 10.7 18.7 23.1 59.9 45.1 152.1
08/05 11:20 18.6 27 4.3 -0.7 9 11 1013.1 0 10.3 18.5 22.6 58.6 43.5 146.2
08/05 11:10 18.1 27 4.17 -1.2 11 17 1013.1 0 10.1 18.4 22.3 57.8 42.4 142.3
08/05 11:00 17.7 26 3.92 -2 7 13 1013.1 0 9.6 18.2 21.6 56.0 39.9 133.7
08/05 10:50 17.7 27 4.07 -1.5 9 9 1013.1 0 9.9 18.4 22.1 57.2 41.5 139.2
08/05 10:40 17.1 27 3.93 -2 9 11 1013.1 0 9.6 18.3 21.8 56.5 40.3 135.1
08/05 10:30 16.9 27 3.88 -2.2 11 15 1013.1 0 9.5 18.3 21.7 56.2 39.9 133.5
08/05 10:20 17 28 4.05 -1.6 7 7 1013.1 0 9.8 18.5 22.2 57.5 41.7 139.7
08/05 10:10 16.8 33 4.72 0.5 9 11 1013.1 0 11.3 19.4 24.5 63.5 49.0 165.3
08/05 10:00 15.9 33 4.47 -0.3 9 15 1013.1 0 10.8 19.3 23.9 62.0 46.8 157.5
08/05 09:50 15.7 33 4.42 -0.5 13 15 1013.1 0 10.7 19.2 23.8 61.7 46.3 156.0
08/05 09:40 15.5 31 4.1 -1.5 13 17 1013.1 0 10.0 18.9 22.8 59.0 43.0 144.1
08/05 09:30 15.3 35 4.57 -0.1 15 19 1013.1 0 11.0 19.5 24.4 63.3 48.2 162.5
08/05 09:20 15 36 4.62 0.1 17 19 1013.1 0 11.1 19.7 24.7 64.0 48.9 165.1
08/05 09:10 14.4 34 4.2 -1.2 15 17 1013.1 0 10.2 19.2 23.4 60.7 44.6 149.9
08/05 09:00 14.4 38 4.7 0.3 11 19 1013.1 0 11.3 19.9 25.1 65.2 50.2 169.4
08/05 08:50 13.7 39 4.62 0 9 9 1013.1 0 11.1 19.9 25.1 65.0 49.7 167.7
08/05 08:40 13.7 41 4.86 0.7 11 11 1013.1 0 11.6 20.3 25.9 67.2 52.4 177.3
08/05 08:30 13.5 42 4.91 0.9 9 11 1013.1 0 11.8 20.4 26.1 67.9 53.2 179.7
08/05 08:20 13.2 42 4.82 0.6 11 13 1013.1 0 11.6 20.3 25.9 67.3 52.3 176.8
08/05 08:10 12.8 42 4.7 0.2 9 13 1013.1 0 11.3 20.2 25.6 66.5 51.2 172.8
08/05 08:00 12.4 42 4.59 -0.1 9 15 1013.1 0 11.1 20.2 25.3 65.8 50.2 169.2
08/05 07:50 11.9 43 4.55 -0.3 7 13 1013.1 0 11.0 20.2 25.4 65.8 50.0 168.6
08/05 07:40 11.2 46 4.66 0 11 13 1013.1 0 11.3 20.5 26.0 67.5 51.8 174.6
08/05 07:30 10.5 48 4.66 0 11 15 1013.1 0 11.3 20.7 26.2 68.0 52.2 176.1
08/05 07:20 9.9 48 4.48 -0.6 11 13 1013.1 0 11.0 20.6 25.7 66.8 50.5 169.9
08/05 07:10 9.5 50 4.55 -0.4 9 9 1013.1 0 11.1 20.8 26.1 67.8 51.6 173.6
08/05 07:00 9.1 50 4.44 -0.8 7 9 1013.1 0 10.9 20.7 25.8 67.1 50.5 169.9
08/05 06:50 8.9 50 4.38 -0.9 7 9 1013.1 0 10.8 20.6 25.7 66.7 49.9 167.8
08/05 06:40 8.7 50 4.33 -1.1 9 11 1013.1 0 10.7 20.6 25.6 66.4 49.5 166.1
08/05 06:30 8.8 49 4.27 -1.3 9 13 1013.1 0 10.5 20.5 25.3 65.7 48.7 163.4
08/05 06:20 9 49 4.32 -1.1 11 13 1013.1 0 10.6 20.5 25.4 66.0 49.1 165.1
08/05 06:10 9.1 48 4.26 -1.3 9 11 1013.1 0 10.5 20.4 25.2 65.4 48.4 162.4
08/05 06:00 9.2 49 4.38 -0.9 11 13 1013.1 0 10.8 20.6 25.6 66.4 49.7 167.2
08/05 05:50 9.1 48 4.26 -1.3 9 11 1013.1 0 10.5 20.4 25.2 65.4 48.4 162.4
08/05 05:40 9.4 46 4.16 -1.6 9 11 1013.1 0 10.3 20.2 24.8 64.2 47.0 157.7
08/05 05:30 9.6 47 4.31 -1.1 11 15 1013.1 0 10.6 20.4 25.2 65.5 48.7 163.5
08/05 05:20 9.7 47 4.33 -1.1 13 15 1013.1 0 10.6 20.4 25.3 65.6 48.8 164.1
08/05 05:10 9.6 46 4.22 -1.4 13 19 1013.1 0 10.4 20.3 24.9 64.6 47.6 159.7
08/05 05:00 9.4 46 4.16 -1.6 11 15 1013.1 0 10.3 20.2 24.8 64.2 47.0 157.7
08/05 04:50 9.7 45 4.15 -1.6 15 17 1013.1 0 10.3 20.1 24.6 63.9 46.7 156.7
08/05 04:40 9.9 44 4.11 -1.8 13 17 1013.1 0 10.2 20.0 24.4 63.3 46.2 154.7
08/05 04:30 10 43 4.04 -2 13 17 1013.1 0 10.0 19.9 24.2 62.6 45.3 151.6
08/05 04:20 9.9 43 4.02 -2.1 11 13 1013.1 0 10.0 19.9 24.1 62.5 45.1 151.0
08/05 04:10 9.8 44 4.08 -1.9 11 11 1013.1 0 10.1 20.0 24.4 63.1 45.9 153.6
08/05 04:00 10.2 42 4 -2.1 11 15 1013.1 0 9.9 19.8 24.0 62.1 44.7 149.6
08/05 03:50 10.4 42 4.05 -1.9 13 15 1013.1 0 10.0 19.8 24.1 62.4 45.2 151.3
08/05 03:40 10.8 39 3.86 -2.6 11 13 1013.1 0 9.6 19.5 23.3 60.3 42.8 142.9
08/05 03:30 10.8 38 3.76 -2.9 13 19 1013.1 0 9.4 19.4 23.0 59.4 41.7 138.9
08/05 03:20 10.9 38 3.78 -2.8 11 13 1013.1 0 9.4 19.4 23.0 59.5 41.8 139.6
08/05 03:10 10.8 40 3.95 -2.2 15 19 1013.1 0 9.8 19.6 23.6 61.1 43.8 146.5
08/05 03:00 11.1 39 3.93 -2.3 13 20 1013.1 0 9.8 19.5 23.5 60.7 43.4 145.2
08/05 02:50 11.4 37 3.8 -2.8 15 17 1013.1 0 9.5 19.3 22.9 59.3 41.8 139.5
08/05 02:40 11.8 35 3.68 -3.1 20 24 1013.1 0 9.2 19.0 22.4 58.0 40.3 134.1
08/05 02:30 11.7 36 3.77 -2.9 15 20 1013.1 0 9.4 19.2 22.8 58.8 41.3 137.8
08/05 02:20 11.5 37 3.82 -2.7 13 19 1013.1 0 9.5 19.3 23.0 59.4 42.0 140.1
08/05 02:10 11.9 35 3.71 -3.1 19 22 1013.1 0 9.3 19.1 22.5 58.2 40.5 135.1
08/05 02:00 12.1 35 3.75 -2.9 19 26 1013.1 0 9.4 19.1 22.6 58.4 40.9 136.4
08/05 01:50 12 34 3.62 -3.4 20 22 1013.1 0 9.1 18.9 22.2 57.3 39.5 131.5
08/05 01:40 11.7 36 3.77 -2.9 17 19 1013.1 0 9.4 19.2 22.8 58.8 41.3 137.8
08/05 01:30 11.9 35 3.71 -3.1 19 24 1013.1 0 9.3 19.1 22.5 58.2 40.5 135.1
08/05 01:20 11.7 36 3.77 -2.9 17 20 1013.1 0 9.4 19.2 22.8 58.8 41.3 137.8
08/05 01:10 11.8 36 3.79 -2.8 17 19 1013.1 0 9.4 19.2 22.8 59.0 41.5 138.4
08/05 01:00 12 36 3.84 -2.6 15 20 1013.1 0 9.5 19.2 22.9 59.3 41.9 140.1
08/05 00:50 12.5 34 3.74 -2.9 17 20 1013.1 0 9.3 19.0 22.4 58.0 40.6 135.3
08/05 00:40 12.6 34 3.76 -2.8 19 22 1013.1 0 9.4 19.0 22.5 58.1 40.7 135.9
08/05 00:20 12.5 35 3.85 -2.5 17 19 1013.1 0 9.6 19.1 22.8 59.0 41.8 139.6
08/05 00:10 12.3 35 3.8 -2.7 19 20 1013.1 0 9.5 19.1 22.7 58.7 41.3 138.0
08/05 00:00 12.3 34 3.69 -3.1 11 17 1013.1 0 9.2 19.0 22.3 57.7 40.1 133.7
07/05 23:50 12.6 35 3.87 -2.4 9 13 1013.1 0 9.6 19.1 22.8 59.1 42.0 140.2
07/05 23:40 13.3 32 3.7 -3 13 17 1013.1 0 9.2 18.8 22.1 57.1 39.7 132.5
07/05 23:30 13.3 32 3.7 -3 17 22 1013.1 0 9.2 18.8 22.1 57.1 39.7 132.5
07/05 23:20 13.6 31 3.65 -3.2 13 15 1013.1 0 9.1 18.6 21.8 56.4 39.1 130.1
07/05 23:10 13.1 34 3.88 -2.4 15 17 1013.1 0 9.6 19.1 22.7 58.8 41.8 139.8
07/05 23:00 13.4 34 3.95 -2.1 9 20 1013.1 0 9.7 19.1 22.9 59.2 42.4 142.0
07/05 22:50 13.1 38 4.34 -0.9 11 13 1013.1 0 10.6 19.7 24.3 63.0 46.9 157.8
07/05 22:40 13.7 36 4.26 -1.1 9 13 1013.1 0 10.4 19.4 23.8 61.8 45.7 153.5
07/05 22:30 14 36 4.34 -0.8 9 13 1013.1 0 10.5 19.5 24.0 62.3 46.4 156.1
07/05 22:20 14.1 36 4.37 -0.7 11 13 1013.1 0 10.6 19.5 24.1 62.5 46.7 157.1
07/05 22:10 14.9 34 4.33 -0.8 15 17 1013.1 0 10.5 19.3 23.7 61.5 45.8 154.0
07/05 22:00 15.6 33 4.39 -0.6 13 19 1013.1 0 10.6 19.2 23.7 61.5 46.1 155.0
07/05 21:50 15.8 35 4.71 0.4 11 15 1013.1 0 11.3 19.6 24.7 64.2 49.4 167.0
07/05 21:40 16.2 34 4.69 0.3 17 24 1013.1 0 11.2 19.5 24.5 63.7 49.0 165.4
07/05 21:30 16.9 31 4.46 -0.3 26 35 1013.1 0 10.7 19.1 23.6 61.2 46.1 155.2
07/05 21:20 17.2 32 4.69 0.4 28 33 1013.1 0 11.2 19.3 24.3 62.9 48.4 163.4
07/05 21:10 17.4 37 5.48 2.6 24 33 1013.1 0 12.8 20.3 26.8 69.8 56.9 193.5
07/05 21:00 17.7 40 6.03 3.9 19 28 1013.1 0 14.0 21.0 28.6 74.5 62.9 214.5
07/05 20:50 17.9 40 6.11 4.1 20 26 1013.1 0 14.1 21.1 28.8 75.1 63.7 217.2
07/05 20:40 17.9 41 6.26 4.5 17 24 1013.1 0 14.5 21.3 29.3 76.5 65.4 223.2
07/05 20:30 18.2 41 6.37 4.7 19 22 1013.1 0 14.7 21.4 29.6 77.2 66.4 226.8
07/05 20:20 18.6 40 6.37 4.8 20 24 1013.1 0 14.7 21.3 29.4 76.8 66.1 225.7
07/05 20:10 18.9 38 6.16 4.3 15 20 1013.1 0 14.2 20.9 28.6 74.6 63.4 216.5
07/05 20:00 19 37 6.03 4 24 35 1013.1 0 13.9 20.7 28.1 73.4 61.9 211.2
07/05 19:50 19 38 6.19 4.4 20 24 1013.1 0 14.3 20.9 28.7 74.8 63.7 217.5

Last Refresh: 08-May-2026 12:07:29

Bureau of Meteorology